Time;durP1;ratioP1;P1;durP2;ratioP2;P2;SDS_P1;SDS_P2;PMS_P1;PMS_P2;Temp;Humidity;BMP_temperature;BMP_pressure;BME280_temperature;BME280_humidity;BME280_pressure;Samples;Min_cycle;Max_cycle;Signal;HPM_P1;HPM_P2
2022/03/31 00:00:36;;;;;;;11.50;6.82;;;;;;;;;;5084050;28;20063;-60
2022/03/31 00:03:04;;;;;;;9.27;5.35;;;;;;;;;;5084713;28;20085;-61
2022/03/31 00:05:29;;;;;;;18.95;7.38;;;;;;;;;;5084299;28;20044;-62
2022/03/31 00:07:59;;;;;;;14.02;9.55;;;;;;;;;;5083003;28;20044;-62
2022/03/31 00:10:26;;;;;;;18.83;13.45;;;;;;;;;;5079705;28;20116;-62
2022/03/31 00:12:52;;;;;;;16.65;8.60;;;;;;;;;;5083348;28;20052;-61
2022/03/31 00:15:18;;;;;;;8.77;5.95;;;;;;;;;;5080685;28;20050;-61
2022/03/31 00:17:43;;;;;;;19.23;7.57;;;;;;;;;;5084714;28;20044;-62
2022/03/31 00:20:10;;;;;;;12.27;6.95;;;;;;;;;;5084261;28;20052;-62
2022/03/31 00:22:36;;;;;;;12.60;8.65;;;;;;;;;;5083088;28;20122;-62
2022/03/31 00:25:01;;;;;;;10.98;6.72;;;;;;;;;;5084710;28;20041;-62
2022/03/31 00:27:26;;;;;;;19.10;8.20;;;;;;;;;;5082650;28;20141;-61
2022/03/31 00:29:52;;;;;;;5.50;4.40;;;;;;;;;;5084766;28;20043;-61
2022/03/31 00:32:17;;;;;;;12.63;6.63;;;;;;;;;;5082429;28;20125;-61
2022/03/31 00:34:42;;;;;;;19.63;5.90;;;;;;;;;;5079423;28;21075;-62
2022/03/31 00:37:08;;;;;;;11.40;6.13;;;;;;;;;;5083284;28;20121;-62
2022/03/31 00:39:33;;;;;;;8.38;5.15;;;;;;;;;;5078745;28;20064;-61
2022/03/31 00:41:59;;;;;;;13.40;5.07;;;;;;;;;;5080713;28;20048;-61
2022/03/31 00:44:25;;;;;;;10.85;6.53;;;;;;;;;;5081480;28;20360;-61
2022/03/31 00:46:52;;;;;;;7.30;4.70;;;;;;;;;;5077723;28;20071;-61
2022/03/31 00:49:18;;;;;;;10.30;4.25;;;;;;;;;;5083982;28;20749;-61
2022/03/31 00:51:43;;;;;;;7.18;4.70;;;;;;;;;;5082413;28;20139;-62
2022/03/31 00:54:08;;;;;;;10.68;4.75;;;;;;;;;;5079959;28;20036;-61
2022/03/31 00:56:34;;;;;;;16.42;5.28;;;;;;;;;;5085511;28;20052;-61
2022/03/31 00:59:01;;;;;;;11.77;4.90;;;;;;;;;;5080756;28;20040;-61
2022/03/31 01:01:27;;;;;;;8.27;7.07;;;;;;;;;;5083737;28;20143;-61
2022/03/31 01:03:52;;;;;;;12.25;5.75;;;;;;;;;;5080460;28;20047;-61
2022/03/31 01:06:18;;;;;;;5.57;3.85;;;;;;;;;;5082583;28;20040;-61
2022/03/31 01:08:43;;;;;;;10.98;7.18;;;;;;;;;;5080479;28;20060;-61
2022/03/31 01:11:08;;;;;;;13.40;8.13;;;;;;;;;;5080570;28;20143;-61
2022/03/31 01:13:34;;;;;;;18.25;7.32;;;;;;;;;;5084598;28;20044;-62
2022/03/31 01:15:59;;;;;;;9.90;7.95;;;;;;;;;;5079220;28;20094;-61
2022/03/31 01:18:25;;;;;;;11.82;7.43;;;;;;;;;;5080348;28;20087;-61
2022/03/31 01:20:50;;;;;;;12.73;9.63;;;;;;;;;;5078444;28;20036;-61
2022/03/31 01:23:16;;;;;;;10.55;8.27;;;;;;;;;;5081966;28;20414;-61
2022/03/31 01:25:41;;;;;;;12.13;6.85;;;;;;;;;;5079579;28;20048;-61
2022/03/31 01:28:07;;;;;;;15.38;8.23;;;;;;;;;;5082549;28;20120;-61
2022/03/31 01:30:32;;;;;;;10.30;6.00;;;;;;;;;;5080892;28;20032;-61
2022/03/31 01:32:58;;;;;;;11.95;6.55;;;;;;;;;;5081686;28;20048;-61
2022/03/31 01:35:23;;;;;;;11.50;6.47;;;;;;;;;;5083830;28;20040;-62
2022/03/31 01:37:49;;;;;;;7.25;5.32;;;;;;;;;;5081471;28;20732;-61
2022/03/31 01:40:15;;;;;;;13.23;4.57;;;;;;;;;;5082355;28;20075;-62
2022/03/31 01:42:42;;;;;;;6.30;4.85;;;;;;;;;;5083173;28;20135;-61
2022/03/31 01:45:08;;;;;;;10.48;5.25;;;;;;;;;;5079855;28;20044;-62
2022/03/31 01:47:34;;;;;;;6.93;5.55;;;;;;;;;;5082427;28;20188;-61
2022/03/31 01:50:01;;;;;;;10.27;5.63;;;;;;;;;;5082305;28;20531;-61
2022/03/31 01:52:27;;;;;;;14.57;5.60;;;;;;;;;;5080356;28;20427;-61
2022/03/31 01:54:52;;;;;;;11.85;6.03;;;;;;;;;;5083968;28;20044;-62
2022/03/31 01:57:18;;;;;;;9.10;6.45;;;;;;;;;;5076342;28;20032;-62
2022/03/31 01:59:43;;;;;;;10.65;4.88;;;;;;;;;;5082881;28;20503;-61
2022/03/31 02:02:11;;;;;;;8.45;4.78;;;;;;;;;;5081493;28;20579;-61
2022/03/31 02:04:37;;;;;;;9.55;4.80;;;;;;;;;;5080036;28;20054;-61
2022/03/31 02:07:02;;;;;;;8.20;6.13;;;;;;;;;;5082029;28;20134;-61
2022/03/31 02:09:28;;;;;;;12.77;4.72;;;;;;;;;;5081914;28;20064;-61
2022/03/31 02:11:54;;;;;;;15.45;5.32;;;;;;;;;;5082744;28;20090;-61
2022/03/31 02:14:22;;;;;;;8.50;3.72;;;;;;;;;;5083656;28;20052;-61
2022/03/31 02:16:48;;;;;;;7.47;4.43;;;;;;;;;;5083185;28;20048;-61
2022/03/31 02:19:13;;;;;;;12.07;5.32;;;;;;;;;;5079289;28;20582;-61
2022/03/31 02:21:40;;;;;;;13.63;7.95;;;;;;;;;;5082956;28;20056;-61
2022/03/31 02:24:06;;;;;;;18.08;5.15;;;;;;;;;;5084084;28;20635;-61
2022/03/31 02:26:31;;;;;;;9.07;3.90;;;;;;;;;;5082306;28;20047;-61
2022/03/31 02:28:57;;;;;;;10.50;5.07;;;;;;;;;;5081852;28;20499;-61
2022/03/31 02:31:22;;;;;;;6.20;4.90;;;;;;;;;;5080691;28;20036;-61
2022/03/31 02:33:47;;;;;;;10.60;6.25;;;;;;;;;;5081480;28;20033;-61
2022/03/31 02:36:13;;;;;;;12.73;5.10;;;;;;;;;;5080603;28;20075;-61
2022/03/31 02:38:38;;;;;;;16.40;5.70;;;;;;;;;;5082155;28;20040;-62
2022/03/31 02:41:05;;;;;;;10.85;6.40;;;;;;;;;;5081618;28;20071;-61
2022/03/31 02:43:30;;;;;;;7.85;6.20;;;;;;;;;;5079269;28;20036;-61
2022/03/31 02:45:56;;;;;;;7.45;5.85;;;;;;;;;;5078886;28;20423;-61
2022/03/31 02:48:21;;;;;;;24.00;5.70;;;;;;;;;;5079260;28;20048;-61
2022/03/31 02:50:46;;;;;;;11.82;6.85;;;;;;;;;;5082652;28;20044;-61
2022/03/31 02:55:55;;;;;;;10.38;5.40;;;;;;;;;;5077299;28;20157;-61
2022/03/31 02:58:20;;;;;;;21.73;6.60;;;;;;;;;;5081490;28;20036;-61
2022/03/31 03:00:46;;;;;;;10.88;6.25;;;;;;;;;;5082682;28;20036;-61
2022/03/31 03:03:11;;;;;;;7.70;4.50;;;;;;;;;;5080495;28;20108;-60
2022/03/31 03:05:36;;;;;;;7.82;4.97;;;;;;;;;;5084407;28;20129;-61
2022/03/31 03:08:02;;;;;;;9.27;6.43;;;;;;;;;;5078649;28;20083;-61
2022/03/31 03:10:27;;;;;;;15.23;7.75;;;;;;;;;;5083312;28;20498;-61
2022/03/31 03:12:52;;;;;;;14.88;7.43;;;;;;;;;;5081136;28;20074;-61
2022/03/31 03:15:18;;;;;;;10.60;7.93;;;;;;;;;;5078215;28;20123;-61
2022/03/31 03:17:44;;;;;;;17.65;9.55;;;;;;;;;;5080599;28;20078;-61
2022/03/31 03:20:13;;;;;;;12.50;9.25;;;;;;;;;;5081323;28;20036;-61
2022/03/31 03:22:48;;;;;;;16.52;7.65;;;;;;;;;;5078597;28;20059;-61
2022/03/31 03:25:15;;;;;;;11.68;7.82;;;;;;;;;;5079748;28;20147;-61
2022/03/31 03:27:41;;;;;;;26.75;8.20;;;;;;;;;;5077879;28;20044;-62
2022/03/31 03:30:07;;;;;;;11.75;8.57;;;;;;;;;;5079373;28;20075;-61
2022/03/31 03:32:33;;;;;;;10.80;6.65;;;;;;;;;;5080336;28;20911;-61
2022/03/31 03:34:59;;;;;;;13.75;8.07;;;;;;;;;;5077846;28;20059;-61
2022/03/31 03:37:24;;;;;;;22.25;10.75;;;;;;;;;;5077273;28;20538;-61
2022/03/31 03:39:49;;;;;;;11.55;9.80;;;;;;;;;;5078260;28;20048;-61
2022/03/31 03:42:15;;;;;;;9.85;8.80;;;;;;;;;;5078922;28;20040;-61
2022/03/31 03:44:40;;;;;;;25.23;9.98;;;;;;;;;;5080230;28;20052;-61
2022/03/31 03:47:06;;;;;;;16.33;6.65;;;;;;;;;;5082292;28;20139;-61
2022/03/31 03:49:31;;;;;;;15.07;9.07;;;;;;;;;;5081939;28;20044;-61
2022/03/31 03:51:56;;;;;;;8.88;7.93;;;;;;;;;;5077595;28;20045;-61
2022/03/31 03:54:22;;;;;;;12.15;8.07;;;;;;;;;;5083026;28;20031;-61
2022/03/31 03:56:47;;;;;;;11.85;7.65;;;;;;;;;;5082739;28;20036;-61
2022/03/31 03:59:12;;;;;;;10.27;7.47;;;;;;;;;;5080534;28;20123;-61
2022/03/31 04:01:38;;;;;;;18.15;9.00;;;;;;;;;;5080938;28;20055;-61
2022/03/31 04:04:04;;;;;;;29.75;8.38;;;;;;;;;;5079693;28;20056;-61
2022/03/31 04:06:30;;;;;;;13.32;8.73;;;;;;;;;;5077482;28;20048;-61
2022/03/31 04:08:55;;;;;;;14.48;6.57;;;;;;;;;;5080456;28;20054;-62
2022/03/31 04:11:20;;;;;;;14.02;6.50;;;;;;;;;;5080213;28;20408;-61
2022/03/31 04:13:46;;;;;;;10.18;5.97;;;;;;;;;;5083388;28;20044;-62
2022/03/31 04:16:11;;;;;;;12.95;8.70;;;;;;;;;;5081129;28;20441;-61
2022/03/31 04:18:38;;;;;;;14.50;7.30;;;;;;;;;;5078194;28;20610;-62
2022/03/31 04:21:03;;;;;;;9.27;7.18;;;;;;;;;;5082697;28;20056;-61
2022/03/31 04:23:29;;;;;;;9.07;5.00;;;;;;;;;;5084061;28;20044;-62
2022/03/31 04:25:54;;;;;;;9.35;5.20;;;;;;;;;;5082893;28;20171;-62
2022/03/31 04:28:19;;;;;;;10.98;5.57;;;;;;;;;;5081794;28;20108;-62
2022/03/31 04:30:45;;;;;;;7.05;5.00;;;;;;;;;;5081806;28;20043;-62
2022/03/31 04:33:10;;;;;;;9.20;5.65;;;;;;;;;;5080952;28;20112;-62
2022/03/31 04:35:36;;;;;;;16.85;8.27;;;;;;;;;;5083329;28;20233;-61
2022/03/31 04:38:02;;;;;;;11.20;6.18;;;;;;;;;;5081896;28;20352;-61
2022/03/31 04:40:27;;;;;;;14.68;7.07;;;;;;;;;;5081909;28;20124;-61
2022/03/31 04:42:52;;;;;;;9.38;7.35;;;;;;;;;;5082890;28;20059;-61
2022/03/31 04:45:18;;;;;;;8.00;6.43;;;;;;;;;;5086289;28;20047;-61
2022/03/31 04:47:43;;;;;;;10.10;8.68;;;;;;;;;;5083793;28;20044;-62
2022/03/31 04:50:08;;;;;;;9.75;7.18;;;;;;;;;;5081102;28;20048;-62
2022/03/31 04:52:34;;;;;;;12.32;8.00;;;;;;;;;;5085960;28;20052;-62
2022/03/31 04:54:59;;;;;;;12.82;10.75;;;;;;;;;;5085116;28;20044;-62
2022/03/31 04:57:24;;;;;;;11.40;9.73;;;;;;;;;;5084613;28;20050;-61
2022/03/31 04:59:50;;;;;;;25.70;8.40;;;;;;;;;;5083310;28;20051;-62
2022/03/31 05:02:15;;;;;;;17.27;7.68;;;;;;;;;;5083572;28;20445;-62
2022/03/31 05:04:40;;;;;;;17.17;9.73;;;;;;;;;;5084637;28;20142;-62
2022/03/31 05:07:06;;;;;;;19.20;15.63;;;;;;;;;;5080722;28;20127;-62
2022/03/31 05:09:31;;;;;;;11.27;9.32;;;;;;;;;;5081857;28;20507;-62
2022/03/31 05:11:57;;;;;;;16.50;11.90;;;;;;;;;;5082893;28;20178;-62
2022/03/31 05:14:23;;;;;;;13.15;7.75;;;;;;;;;;5086507;28;20067;-62
2022/03/31 05:16:48;;;;;;;11.07;6.65;;;;;;;;;;5080701;28;20080;-62
2022/03/31 05:19:13;;;;;;;16.70;11.70;;;;;;;;;;5079931;28;20461;-62
2022/03/31 05:21:39;;;;;;;13.00;8.93;;;;;;;;;;5081209;28;20783;-62
2022/03/31 05:24:04;;;;;;;26.63;14.00;;;;;;;;;;5076957;28;20074;-61
2022/03/31 05:26:29;;;;;;;11.75;8.55;;;;;;;;;;5081684;28;20461;-61
2022/03/31 05:28:55;;;;;;;15.77;7.90;;;;;;;;;;5082348;28;20044;-61
2022/03/31 05:31:20;;;;;;;21.13;10.57;;;;;;;;;;5082151;28;20062;-61
2022/03/31 05:33:45;;;;;;;20.83;12.10;;;;;;;;;;5078451;28;20044;-61
2022/03/31 05:36:11;;;;;;;19.15;9.27;;;;;;;;;;5081279;28;20040;-61
2022/03/31 05:38:36;;;;;;;17.42;7.50;;;;;;;;;;5081022;28;20177;-61
2022/03/31 05:41:02;;;;;;;12.20;6.32;;;;;;;;;;5083790;28;20608;-61
2022/03/31 05:43:27;;;;;;;17.40;7.43;;;;;;;;;;5079796;28;20044;-61
2022/03/31 05:45:52;;;;;;;15.15;7.55;;;;;;;;;;5077442;28;20054;-61
2022/03/31 05:48:18;;;;;;;10.07;6.28;;;;;;;;;;5080787;28;20560;-61
2022/03/31 05:50:43;;;;;;;10.32;6.97;;;;;;;;;;5084705;28;20713;-61
2022/03/31 05:53:09;;;;;;;11.77;8.05;;;;;;;;;;5082637;28;20542;-63
2022/03/31 05:55:34;;;;;;;12.63;7.35;;;;;;;;;;5080581;28;20143;-61
2022/03/31 05:57:59;;;;;;;18.30;7.40;;;;;;;;;;5080995;28;20056;-63
2022/03/31 06:00:25;;;;;;;9.25;6.15;;;;;;;;;;5078545;28;20024;-62
2022/03/31 06:02:52;;;;;;;9.63;5.55;;;;;;;;;;5083343;28;20044;-64
2022/03/31 06:05:18;;;;;;;18.90;8.27;;;;;;;;;;5083308;28;20138;-55
2022/03/31 06:07:44;;;;;;;15.23;10.68;;;;;;;;;;5082004;28;20055;-55
2022/03/31 06:10:09;;;;;;;24.15;8.95;;;;;;;;;;5081878;28;20040;-56
2022/03/31 06:12:35;;;;;;;11.50;9.65;;;;;;;;;;5080179;28;20075;-56
2022/03/31 06:15:04;;;;;;;12.18;8.50;;;;;;;;;;5080583;28;20572;-56
2022/03/31 06:17:29;;;;;;;12.20;7.78;;;;;;;;;;5081582;28;20040;-57
2022/03/31 06:19:54;;;;;;;11.77;8.60;;;;;;;;;;5080386;28;20044;-57
2022/03/31 06:22:20;;;;;;;23.35;6.35;;;;;;;;;;5083630;28;20837;-57
2022/03/31 06:24:45;;;;;;;11.57;8.70;;;;;;;;;;5080413;28;20526;-57
2022/03/31 06:27:11;;;;;;;13.88;7.60;;;;;;;;;;5081028;28;20117;-58
2022/03/31 06:29:37;;;;;;;17.13;9.00;;;;;;;;;;5080307;28;20044;-59
2022/03/31 06:32:02;;;;;;;17.33;8.38;;;;;;;;;;5079367;28;20075;-53
2022/03/31 06:34:28;;;;;;;25.08;9.32;;;;;;;;;;5080227;28;20139;-54
2022/03/31 06:36:54;;;;;;;19.92;10.73;;;;;;;;;;5082166;28;20094;-54
2022/03/31 06:39:19;;;;;;;24.17;12.65;;;;;;;;;;5081812;28;20114;-50
2022/03/31 06:41:45;;;;;;;11.27;10.05;;;;;;;;;;5080976;28;20695;-58
2022/03/31 06:44:13;;;;;;;15.30;11.07;;;;;;;;;;5081608;28;20043;-58
2022/03/31 06:46:39;;;;;;;21.60;12.27;;;;;;;;;;5077491;28;20042;-58
2022/03/31 06:49:04;;;;;;;35.15;13.77;;;;;;;;;;5079177;28;20367;-58
2022/03/31 06:51:29;;;;;;;26.58;11.82;;;;;;;;;;5078949;28;20055;-57
2022/03/31 06:53:57;;;;;;;11.13;9.75;;;;;;;;;;5079648;28;20043;-58
2022/03/31 06:56:23;;;;;;;13.48;8.77;;;;;;;;;;5076577;28;20075;-59
2022/03/31 06:58:48;;;;;;;15.45;7.57;;;;;;;;;;5084508;28;20137;-58
2022/03/31 07:01:14;;;;;;;13.35;8.20;;;;;;;;;;5080095;28;20063;-57
2022/03/31 07:03:39;;;;;;;19.67;11.50;;;;;;;;;;5082646;28;20051;-58
2022/03/31 07:06:06;;;;;;;21.48;11.65;;;;;;;;;;5082192;28;20058;-58
2022/03/31 07:08:33;;;;;;;41.60;14.30;;;;;;;;;;5081945;28;20028;-58
2022/03/31 07:10:59;;;;;;;30.35;16.40;;;;;;;;;;5082025;28;20066;-58
2022/03/31 07:13:25;;;;;;;15.77;13.05;;;;;;;;;;5081624;28;20097;-58
2022/03/31 07:15:50;;;;;;;25.35;11.85;;;;;;;;;;5079393;28;20471;-58
2022/03/31 07:18:15;;;;;;;17.48;11.13;;;;;;;;;;5082068;28;20036;-58
2022/03/31 07:20:40;;;;;;;17.88;11.15;;;;;;;;;;5080968;28;20568;-57
2022/03/31 07:23:06;;;;;;;16.05;11.50;;;;;;;;;;5082133;28;20040;-58
2022/03/31 07:25:32;;;;;;;29.42;26.05;;;;;;;;;;5079064;28;20097;-58
2022/03/31 07:27:57;;;;;;;29.95;15.63;;;;;;;;;;5082125;28;20423;-58
2022/03/31 07:30:22;;;;;;;22.55;12.77;;;;;;;;;;5080076;28;20127;-58
2022/03/31 07:32:52;;;;;;;14.75;10.15;;;;;;;;;;5081722;28;20658;-58
2022/03/31 07:35:19;;;;;;;28.15;10.35;;;;;;;;;;5088322;28;20608;-58
2022/03/31 07:37:44;;;;;;;7.60;5.78;;;;;;;;;;5062599;28;20036;-58
2022/03/31 07:40:10;;;;;;;17.67;5.05;;;;;;;;;;5083674;28;20038;-59
2022/03/31 07:42:35;;;;;;;9.50;5.18;;;;;;;;;;5081825;28;20071;-58
2022/03/31 07:45:00;;;;;;;6.88;4.22;;;;;;;;;;5075855;28;20068;-58
2022/03/31 07:47:25;;;;;;;11.40;6.53;;;;;;;;;;5075626;28;20047;-58
2022/03/31 07:49:52;;;;;;;22.63;7.47;;;;;;;;;;5080105;28;20542;-57
2022/03/31 07:52:18;;;;;;;8.93;5.95;;;;;;;;;;5080337;28;20439;-58
2022/03/31 07:54:44;;;;;;;10.05;8.02;;;;;;;;;;5081329;28;20058;-58
2022/03/31 07:57:09;;;;;;;9.02;6.22;;;;;;;;;;5080479;28;20452;-58
2022/03/31 07:59:35;;;;;;;18.02;6.95;;;;;;;;;;5079769;28;20074;-58
2022/03/31 08:02:01;;;;;;;8.40;6.95;;;;;;;;;;5087679;28;20175;-58
2022/03/31 08:04:27;;;;;;;9.27;7.30;;;;;;;;;;5081685;28;20046;-57
2022/03/31 08:06:53;;;;;;;10.05;7.00;;;;;;;;;;5083483;28;20128;-58
2022/03/31 08:09:21;;;;;;;12.68;5.80;;;;;;;;;;5086155;28;20054;-57
2022/03/31 08:11:47;;;;;;;14.10;4.72;;;;;;;;;;5086829;28;20114;-58
2022/03/31 08:14:16;;;;;;;11.60;5.40;;;;;;;;;;5084157;28;20678;-58
2022/03/31 08:16:46;;;;;;;9.77;3.65;;;;;;;;;;5083418;28;20067;-58
2022/03/31 08:19:12;;;;;;;7.20;6.13;;;;;;;;;;5085978;28;20040;-57
2022/03/31 08:21:37;;;;;;;9.00;5.45;;;;;;;;;;5079176;28;20040;-58
2022/03/31 08:24:02;;;;;;;5.53;4.22;;;;;;;;;;5086277;28;20514;-58
2022/03/31 08:26:28;;;;;;;6.63;4.28;;;;;;;;;;5087077;28;20051;-59
2022/03/31 08:28:53;;;;;;;8.70;5.70;;;;;;;;;;5079637;28;20040;-59
2022/03/31 08:31:19;;;;;;;8.75;5.30;;;;;;;;;;5082768;28;20028;-59
2022/03/31 08:33:44;;;;;;;10.95;5.53;;;;;;;;;;5080744;28;20044;-59
2022/03/31 08:36:12;;;;;;;9.38;5.82;;;;;;;;;;5083196;28;20048;-59
2022/03/31 08:38:37;;;;;;;10.05;6.93;;;;;;;;;;5082061;28;20048;-59
2022/03/31 08:41:03;;;;;;;12.77;6.38;;;;;;;;;;5084480;28;20040;-60
2022/03/31 08:43:30;;;;;;;9.80;5.55;;;;;;;;;;5084434;28;20067;-59
2022/03/31 08:45:55;;;;;;;8.25;5.90;;;;;;;;;;5083257;28;20048;-59
2022/03/31 08:48:23;;;;;;;9.63;6.65;;;;;;;;;;5083899;28;20045;-59
2022/03/31 08:50:48;;;;;;;13.23;5.35;;;;;;;;;;5086564;28;20087;-59
2022/03/31 08:53:13;;;;;;;10.52;6.65;;;;;;;;;;5080867;28;20052;-60
2022/03/31 08:55:39;;;;;;;6.03;5.43;;;;;;;;;;5081254;28;20075;-59
2022/03/31 08:58:04;;;;;;;9.13;5.07;;;;;;;;;;5085108;28;20067;-59
2022/03/31 09:00:30;;;;;;;5.15;4.45;;;;;;;;;;5084873;28;20037;-59
2022/03/31 09:02:59;;;;;;;12.05;4.90;;;;;;;;;;5086827;28;20430;-60
2022/03/31 09:05:24;;;;;;;10.40;4.65;;;;;;;;;;5081792;28;20047;-59
2022/03/31 09:07:54;;;;;;;6.20;4.07;;;;;;;;;;5082793;28;20043;-59
2022/03/31 09:10:29;;;;;;;14.57;4.63;;;;;;;;;;5085075;28;20072;-59
2022/03/31 09:12:55;;;;;;;23.58;6.18;;;;;;;;;;5082844;28;20139;-59
2022/03/31 09:15:20;;;;;;;10.30;4.15;;;;;;;;;;5084760;28;20163;-59
2022/03/31 09:17:52;;;;;;;7.07;5.32;;;;;;;;;;5080691;28;20485;-59
2022/03/31 09:20:17;;;;;;;;;;;;;;;;;;5083781;28;20041;-59
2022/03/31 09:22:48;;;;;;;14.00;4.43;;;;;;;;;;5080623;28;19915;-59
2022/03/31 09:25:21;;;;;;;5.70;4.60;;;;;;;;;;5079035;28;20806;-59
2022/03/31 09:27:46;;;;;;;8.90;5.60;;;;;;;;;;5083037;28;20233;-58
2022/03/31 09:30:12;;;;;;;15.98;4.18;;;;;;;;;;5082385;28;20860;-58
2022/03/31 09:32:45;;;;;;;10.45;4.88;;;;;;;;;;5084249;28;20040;-58
2022/03/31 09:35:10;;;;;;;5.45;4.95;;;;;;;;;;5081284;28;20059;-58
2022/03/31 09:37:36;;;;;;;14.13;9.75;;;;;;;;;;5081791;28;20055;-58
2022/03/31 09:40:02;;;;;;;10.15;8.40;;;;;;;;;;5079079;28;20051;-58
2022/03/31 09:42:27;;;;;;;27.08;13.77;;;;;;;;;;5082265;28;20036;-58
2022/03/31 09:44:56;;;;;;;7.53;5.88;;;;;;;;;;5084488;28;20453;-59
2022/03/31 09:47:22;;;;;;;5.72;3.78;;;;;;;;;;5082887;28;20037;-58
2022/03/31 09:49:54;;;;;;;6.72;3.25;;;;;;;;;;5083057;28;20050;-57
2022/03/31 09:52:20;;;;;;;13.82;5.18;;;;;;;;;;5086559;28;20146;-58
2022/03/31 09:54:47;;;;;;;4.47;3.45;;;;;;;;;;5084806;28;20551;-58
2022/03/31 09:57:13;;;;;;;9.30;4.95;;;;;;;;;;5082829;28;20069;-58
2022/03/31 09:59:39;;;;;;;22.02;6.50;;;;;;;;;;5083668;28;20036;-58
2022/03/31 10:02:05;;;;;;;16.65;5.05;;;;;;;;;;5081711;28;20066;-59
2022/03/31 10:04:31;;;;;;;10.10;5.43;;;;;;;;;;5082032;28;20040;-58
2022/03/31 10:06:57;;;;;;;10.65;6.45;;;;;;;;;;5085523;28;20039;-58
2022/03/31 10:09:23;;;;;;;8.73;5.75;;;;;;;;;;5078783;28;20078;-58
2022/03/31 10:11:52;;;;;;;18.48;6.40;;;;;;;;;;5079281;28;20477;-58
2022/03/31 10:14:37;;;;;;;18.08;5.15;;;;;;;;;;5079674;28;20097;-58
2022/03/31 10:17:06;;;;;;;8.70;4.53;;;;;;;;;;5082666;28;20036;-58
2022/03/31 10:19:39;;;;;;;7.75;5.45;;;;;;;;;;5081318;28;20036;-58
2022/03/31 10:22:08;;;;;;;8.85;5.40;;;;;;;;;;5079522;28;20048;-58
2022/03/31 10:24:44;;;;;;;8.23;5.78;;;;;;;;;;5080035;28;20418;-58
2022/03/31 10:27:13;;;;;;;13.43;8.52;;;;;;;;;;5084715;28;20051;-58
2022/03/31 10:29:39;;;;;;;11.18;7.82;;;;;;;;;;5081704;28;20040;-59
2022/03/31 10:32:17;;;;;;;14.25;8.00;;;;;;;;;;5085241;28;20082;-58
2022/03/31 10:34:44;;;;;;;9.27;6.55;;;;;;;;;;5081630;28;20055;-58
2022/03/31 10:37:11;;;;;;;16.13;9.32;;;;;;;;;;5085572;28;20050;-58
2022/03/31 10:39:36;;;;;;;14.77;6.50;;;;;;;;;;5083857;28;20166;-58
2022/03/31 10:42:05;;;;;;;9.40;7.43;;;;;;;;;;5082228;28;20134;-58
2022/03/31 10:44:31;;;;;;;9.73;7.93;;;;;;;;;;5080990;28;20838;-58
2022/03/31 10:47:11;;;;;;;13.43;9.68;;;;;;;;;;5081889;28;20040;-58
2022/03/31 10:49:37;;;;;;;14.07;6.13;;;;;;;;;;5080815;28;20048;-58
2022/03/31 10:52:12;;;;;;;7.90;4.28;;;;;;;;;;5082289;28;20060;-58
2022/03/31 10:54:38;;;;;;;7.80;4.13;;;;;;;;;;5083738;28;20068;-58
2022/03/31 10:57:08;;;;;;;9.93;6.75;;;;;;;;;;5077854;28;20078;-58
2022/03/31 10:59:34;;;;;;;8.30;5.05;;;;;;;;;;5077058;28;20119;-58
2022/03/31 11:02:08;;;;;;;18.17;5.35;;;;;;;;;;5080633;28;20395;-58
2022/03/31 11:04:44;;;;;;;38.63;7.57;;;;;;;;;;5079919;28;20044;-58
2022/03/31 11:07:13;;;;;;;7.40;4.53;;;;;;;;;;5081852;28;20121;-58
2022/03/31 11:09:38;;;;;;;39.97;8.27;;;;;;;;;;5080569;28;20061;-58
2022/03/31 11:12:04;;;;;;;27.48;5.72;;;;;;;;;;5080789;28;20161;-58
2022/03/31 11:14:29;;;;;;;9.95;4.78;;;;;;;;;;5079370;28;20079;-58
2022/03/31 11:16:55;;;;;;;20.65;4.88;;;;;;;;;;5081595;28;20092;-58
2022/03/31 11:19:20;;;;;;;10.95;4.03;;;;;;;;;;5080632;28;20127;-58
2022/03/31 11:21:46;;;;;;;11.23;3.97;;;;;;;;;;5081861;28;20036;-58
2022/03/31 11:24:11;;;;;;;9.30;4.13;;;;;;;;;;5078781;28;20067;-58
2022/03/31 11:26:46;;;;;;;24.30;7.20;;;;;;;;;;5083503;28;20040;-58
2022/03/31 11:29:16;;;;;;;6.95;4.80;;;;;;;;;;5080224;28;20118;-58
2022/03/31 11:31:48;;;;;;;16.92;6.30;;;;;;;;;;5083254;28;20051;-58
2022/03/31 11:34:15;;;;;;;26.67;5.78;;;;;;;;;;5085958;28;20134;-57
2022/03/31 11:36:40;;;;;;;13.07;4.20;;;;;;;;;;5088332;28;20109;-50
2022/03/31 11:39:06;;;;;;;8.55;3.67;;;;;;;;;;5085267;28;20048;-56
2022/03/31 11:41:38;;;;;;;9.80;5.60;;;;;;;;;;5083895;28;20462;-63
2022/03/31 11:44:05;;;;;;;7.57;3.75;;;;;;;;;;5086010;28;20071;-55
2022/03/31 11:46:40;;;;;;;9.40;3.88;;;;;;;;;;5087726;28;20099;-54
2022/03/31 11:49:13;;;;;;;13.90;6.65;;;;;;;;;;5085612;28;20036;-54
2022/03/31 11:51:38;;;;;;;7.13;4.93;;;;;;;;;;5084627;28;20051;-58
2022/03/31 11:54:08;;;;;;;7.63;3.90;;;;;;;;;;5085810;28;20452;-58
2022/03/31 11:56:33;;;;;;;12.18;9.52;;;;;;;;;;5084138;28;20040;-57
2022/03/31 11:58:59;;;;;;;22.45;5.68;;;;;;;;;;5082286;28;20036;-58
2022/03/31 12:01:43;;;;;;;8.88;3.85;;;;;;;;;;5083667;28;20036;-58
2022/03/31 12:04:18;;;;;;;9.35;3.90;;;;;;;;;;5086383;28;20051;-59
2022/03/31 12:06:44;;;;;;;15.02;3.88;;;;;;;;;;5082708;28;20059;-59
2022/03/31 12:09:10;;;;;;;5.90;3.75;;;;;;;;;;5081428;28;20044;-57
2022/03/31 12:11:35;;;;;;;11.55;4.68;;;;;;;;;;5087599;28;20043;-58
2022/03/31 12:14:02;;;;;;;15.13;5.80;;;;;;;;;;5085415;28;20063;-54
2022/03/31 12:16:27;;;;;;;10.82;4.90;;;;;;;;;;5083092;28;20063;-50
2022/03/31 12:19:01;;;;;;;12.45;4.10;;;;;;;;;;5083103;28;20043;-52
2022/03/31 12:21:28;;;;;;;6.47;3.72;;;;;;;;;;5085928;28;20050;-52
2022/03/31 12:23:57;;;;;;;19.00;7.88;;;;;;;;;;5086492;28;20040;-51
2022/03/31 12:26:22;;;;;;;6.65;4.15;;;;;;;;;;5084000;28;20122;-53
2022/03/31 12:28:49;;;;;;;15.15;4.75;;;;;;;;;;5085057;28;20051;-55
2022/03/31 12:31:22;;;;;;;16.70;5.07;;;;;;;;;;5085989;28;20125;-55
2022/03/31 12:33:48;;;;;;;12.40;5.80;;;;;;;;;;5084730;28;20044;-53
2022/03/31 12:36:13;;;;;;;14.18;6.10;;;;;;;;;;5086015;28;20562;-56
2022/03/31 12:38:48;;;;;;;4.55;2.40;;;;;;;;;;5086366;28;20044;-53
2022/03/31 12:41:15;;;;;;;5.82;4.57;;;;;;;;;;5085754;28;20038;-55
2022/03/31 12:43:41;;;;;;;5.68;3.88;;;;;;;;;;5085951;28;20043;-56
2022/03/31 12:46:13;;;;;;;6.75;4.75;;;;;;;;;;5084241;28;20055;-56
2022/03/31 12:48:49;;;;;;;8.57;3.45;;;;;;;;;;5084681;28;20048;-56
2022/03/31 12:51:14;;;;;;;6.63;3.67;;;;;;;;;;5084004;28;20064;-52
2022/03/31 12:53:41;;;;;;;15.50;6.22;;;;;;;;;;5085416;28;20040;-55
2022/03/31 12:56:08;;;;;;;6.55;3.50;;;;;;;;;;5085631;28;20048;-51
2022/03/31 12:58:40;;;;;;;9.60;6.00;;;;;;;;;;5085169;28;20701;-53
2022/03/31 13:01:11;;;;;;;3.72;2.40;;;;;;;;;;5082385;28;20119;-54
2022/03/31 13:03:46;;;;;;;5.75;3.95;;;;;;;;;;5082123;28;20123;-53
2022/03/31 13:06:16;;;;;;;8.38;4.18;;;;;;;;;;5083568;28;20056;-53
2022/03/31 13:08:44;;;;;;;7.38;3.90;;;;;;;;;;5085001;28;20502;-53
2022/03/31 13:11:18;;;;;;;5.68;3.42;;;;;;;;;;5085776;28;20048;-54
2022/03/31 13:13:44;;;;;;;4.88;4.15;;;;;;;;;;5084697;28;20046;-53
2022/03/31 13:16:10;;;;;;;10.05;4.55;;;;;;;;;;5080942;28;20147;-51
2022/03/31 13:18:35;;;;;;;5.90;3.85;;;;;;;;;;5084537;28;20125;-53
2022/03/31 13:21:00;;;;;;;9.10;4.75;;;;;;;;;;5082221;28;20083;-52
2022/03/31 13:23:26;;;;;;;7.05;3.05;;;;;;;;;;5084195;28;20055;-56
2022/03/31 13:25:51;;;;;;;10.05;6.55;;;;;;;;;;5082862;28;20040;-55
2022/03/31 13:28:17;;;;;;;8.98;5.68;;;;;;;;;;5085347;28;20057;-54
2022/03/31 13:30:42;;;;;;;12.52;3.53;;;;;;;;;;5082330;28;20052;-54
2022/03/31 13:33:08;;;;;;;6.57;4.28;;;;;;;;;;5083850;28;20046;-54
2022/03/31 13:35:34;;;;;;;4.15;2.25;;;;;;;;;;5084326;28;20042;-53
2022/03/31 13:37:59;;;;;;;10.07;3.08;;;;;;;;;;5083459;28;20043;-55
2022/03/31 13:40:25;;;;;;;5.60;2.13;;;;;;;;;;5084150;28;20368;-53
2022/03/31 13:42:50;;;;;;;8.40;2.13;;;;;;;;;;5082791;28;20048;-54
2022/03/31 13:45:16;;;;;;;5.25;2.60;;;;;;;;;;5084732;28;20068;-55
2022/03/31 13:47:43;;;;;;;2.63;1.38;;;;;;;;;;5083222;28;20494;-54
2022/03/31 13:50:09;;;;;;;8.32;3.00;;;;;;;;;;5082909;28;20070;-53
2022/03/31 13:52:35;;;;;;;2.65;2.03;;;;;;;;;;5081487;28;20539;-52
2022/03/31 13:55:00;;;;;;;5.97;3.30;;;;;;;;;;5080283;28;20044;-54
2022/03/31 14:02:55;;;;;;;9.98;3.70;;;;;;;;;;5079722;28;20055;-54
2022/03/31 14:05:21;;;;;;;5.05;2.22;;;;;;;;;;5080700;28;20749;-53
2022/03/31 14:07:49;;;;;;;2.40;2.05;;;;;;;;;;5085253;28;20048;-52
2022/03/31 14:10:15;;;;;;;6.30;2.20;;;;;;;;;;5081504;28;20048;-54
2022/03/31 14:12:41;;;;;;;6.10;3.35;;;;;;;;;;5082396;28;20552;-50
2022/03/31 14:15:06;;;;;;;8.15;3.65;;;;;;;;;;5085149;28;20055;-51
2022/03/31 14:17:32;;;;;;;3.30;2.13;;;;;;;;;;5080920;28;20028;-54
2022/03/31 14:19:57;;;;;;;5.85;3.13;;;;;;;;;;5084372;28;20499;-50
2022/03/31 14:22:22;;;;;;;5.10;2.92;;;;;;;;;;5081934;28;20052;-50
2022/03/31 14:24:48;;;;;;;19.17;3.22;;;;;;;;;;5079693;28;20090;-51
2022/03/31 14:27:14;;;;;;;8.27;4.28;;;;;;;;;;5082778;28;20044;-51
2022/03/31 14:29:42;;;;;;;10.80;4.45;;;;;;;;;;5082372;28;20708;-50
2022/03/31 14:32:11;;;;;;;6.95;3.92;;;;;;;;;;5083917;28;20075;-53
2022/03/31 14:34:38;;;;;;;8.63;5.32;;;;;;;;;;5083899;28;20630;-53
2022/03/31 14:37:04;;;;;;;25.40;7.70;;;;;;;;;;5086251;28;20052;-51